createdAt,value
2023-04-01T00:00:53.164Z,9.93
2023-04-01T00:03:20.366Z,10.20
2023-04-01T00:05:47.265Z,10.67
2023-04-01T00:08:13.906Z,10.77
2023-04-01T00:10:40.642Z,9.77
2023-04-01T00:13:07.406Z,11.17
2023-04-01T00:15:34.550Z,10.23
2023-04-01T00:18:03.905Z,10.13
2023-04-01T00:20:30.869Z,10.73
2023-04-01T00:22:58.422Z,9.00
2023-04-01T00:25:25.402Z,8.73
2023-04-01T00:27:52.138Z,8.30
2023-04-01T00:30:19.098Z,9.63
2023-04-01T00:32:46.434Z,7.53
2023-04-01T00:35:13.740Z,8.40
2023-04-01T00:37:41.328Z,8.23
2023-04-01T00:40:10.330Z,8.07
2023-04-01T00:42:37.289Z,8.00
2023-04-01T00:45:24.088Z,7.13
2023-04-01T00:47:51.848Z,7.00
2023-04-01T00:50:18.637Z,7.23
2023-04-01T00:52:46.064Z,6.53
2023-04-01T00:55:12.877Z,5.70
2023-04-01T00:57:39.900Z,5.57
2023-04-01T01:00:08.499Z,5.30
2023-04-01T01:02:35.730Z,5.00
2023-04-01T01:05:02.754Z,5.20
2023-04-01T01:07:58.646Z,4.73
2023-04-01T01:10:26.298Z,5.13
2023-04-01T01:12:56.211Z,5.10
2023-04-01T01:15:27.438Z,3.77
2023-04-01T01:17:54.476Z,3.50
2023-04-01T01:20:41.780Z,3.50
2023-04-01T01:23:28.395Z,3.63
2023-04-01T01:25:57.942Z,3.80
2023-04-01T01:28:24.690Z,3.47
2023-04-01T01:31:10.188Z,3.50
2023-04-01T01:33:40.103Z,3.37
2023-04-01T01:36:07.852Z,3.47
2023-04-01T01:38:35.407Z,3.43
2023-04-01T01:41:05.172Z,3.23
2023-04-01T02:15:25.740Z,4.80
2023-04-01T02:17:53.453Z,4.37
2023-04-01T02:20:23.692Z,4.60
2023-04-01T02:22:54.379Z,5.10
2023-04-01T02:25:30.886Z,4.53
2023-04-01T02:27:58.149Z,5.17
2023-04-01T02:30:24.849Z,4.30
2023-04-01T02:32:51.962Z,4.87
2023-04-01T02:35:18.628Z,4.37
2023-04-01T02:37:45.517Z,4.20
2023-04-01T02:40:13.128Z,4.80
2023-04-01T02:42:39.755Z,4.37
2023-04-01T02:45:06.810Z,4.53
2023-04-01T02:47:33.573Z,5.00
2023-04-01T02:50:00.301Z,4.73
2023-04-01T02:52:27.574Z,4.90
2023-04-01T02:54:54.647Z,4.73
2023-04-01T02:57:22.361Z,4.90
2023-04-01T02:59:49.132Z,4.20
2023-04-01T03:02:16.117Z,4.57
2023-04-01T03:04:42.992Z,4.73
2023-04-01T03:07:11.044Z,5.83
2023-04-01T03:09:38.110Z,5.30
2023-04-01T03:12:04.851Z,5.57
2023-04-01T03:14:37.298Z,5.50
2023-04-01T03:17:03.935Z,5.07
2023-04-01T03:19:31.375Z,6.03
2023-04-01T03:21:59.287Z,5.23
2023-04-01T03:24:25.822Z,5.67
2023-04-01T03:26:52.516Z,5.17
2023-04-01T03:29:19.649Z,5.83
2023-04-01T03:31:46.314Z,6.10
2023-04-01T03:34:12.973Z,5.60
2023-04-01T03:36:41.874Z,4.63
2023-04-01T03:39:08.426Z,5.17
2023-04-01T03:41:41.573Z,4.53
2023-04-01T03:44:09.056Z,4.60
2023-04-01T03:46:35.818Z,4.30
2023-04-01T03:49:02.523Z,4.57
2023-04-01T03:51:29.238Z,4.43
2023-04-01T03:53:56.159Z,4.77
2023-04-01T03:56:22.823Z,5.00
2023-04-01T03:58:50.137Z,4.80
2023-04-01T04:01:17.494Z,4.90
2023-04-01T04:03:45.352Z,5.40
2023-04-01T04:06:13.457Z,4.73
2023-04-01T04:08:40.356Z,4.93
2023-04-01T04:11:07.207Z,5.20
2023-04-01T04:13:34.912Z,4.50
2023-04-01T04:16:01.923Z,4.70
2023-04-01T04:18:30.131Z,4.70
2023-04-01T04:20:57.041Z,4.80
2023-04-01T04:23:25.814Z,4.30
2023-04-01T04:25:57.193Z,4.20
2023-04-01T04:28:27.500Z,4.40
2023-04-01T04:30:56.033Z,4.50
2023-04-01T04:33:23.201Z,4.70
2023-04-01T04:35:50.489Z,4.60
2023-04-01T04:38:17.327Z,5.07
2023-04-01T04:40:44.168Z,4.80
2023-04-01T04:43:13.739Z,4.70
2023-04-01T04:45:40.689Z,4.83
2023-04-01T04:48:11.272Z,5.17
2023-04-01T04:50:39.032Z,5.20
2023-04-01T04:53:06.410Z,4.83
2023-04-01T04:55:34.025Z,4.93
2023-04-01T04:58:27.501Z,4.93
2023-04-01T05:00:54.870Z,3.77
2023-04-01T05:03:28.493Z,4.70
2023-04-01T05:05:55.882Z,4.03
2023-04-01T05:08:22.689Z,4.60
2023-04-01T05:10:49.422Z,3.97
2023-04-01T05:13:16.379Z,3.90
2023-04-01T05:15:46.848Z,4.37
2023-04-01T05:18:13.664Z,3.97
2023-04-01T05:20:40.432Z,4.70
2023-04-01T05:23:07.316Z,4.13
2023-04-01T05:25:34.287Z,3.97
2023-04-01T05:28:01.227Z,4.30
2023-04-01T05:30:28.051Z,3.70
2023-04-01T05:33:01.460Z,4.87
2023-04-01T05:35:28.662Z,5.07
2023-04-01T05:37:55.517Z,4.00
2023-04-01T05:40:22.361Z,3.60
2023-04-01T05:42:48.988Z,5.20
2023-04-01T05:45:17.338Z,4.63
2023-04-01T05:48:04.295Z,4.80
2023-04-01T05:50:36.894Z,4.40
2023-04-01T05:53:05.812Z,4.20
2023-04-01T05:55:37.505Z,4.53
2023-04-01T05:58:04.860Z,4.03
2023-04-01T06:00:31.856Z,4.30
2023-04-01T06:03:01.102Z,5.10
2023-04-01T06:05:39.148Z,3.73
2023-04-01T06:08:17.681Z,5.40
2023-04-01T06:10:55.738Z,5.20
2023-04-01T06:13:28.593Z,2.70
2023-04-01T06:16:00.113Z,2.80
2023-04-01T06:18:37.175Z,2.80
2023-04-01T06:21:07.845Z,2.10
2023-04-01T06:23:41.724Z,2.20
2023-04-01T06:26:16.362Z,1.93
2023-04-01T06:28:56.778Z,1.40
2023-04-01T06:31:27.277Z,1.70
2023-04-01T06:34:01.155Z,2.20
2023-04-01T06:36:35.296Z,2.20
2023-04-01T06:39:02.016Z,1.77
2023-04-01T06:41:35.285Z,2.10
2023-04-01T06:44:08.903Z,2.43
2023-04-01T06:47:08.358Z,2.73
2023-04-01T06:49:59.999Z,2.40
2023-04-01T06:53:05.235Z,2.50
2023-04-01T06:56:09.252Z,2.60
2023-04-01T06:58:56.897Z,2.50
2023-04-01T07:01:25.247Z,2.80
2023-04-01T07:03:54.682Z,2.80
2023-04-01T07:06:42.222Z,2.60
2023-04-01T07:09:13.972Z,2.57
2023-04-01T07:12:01.730Z,2.90
2023-04-01T07:15:02.845Z,3.13
2023-04-01T07:17:33.124Z,3.10
2023-04-01T07:20:05.040Z,3.73
2023-04-01T07:22:37.600Z,4.73
2023-04-01T07:25:29.144Z,2.70
2023-04-01T07:28:17.761Z,2.63
2023-04-01T07:30:48.969Z,3.70
2023-04-01T07:33:17.997Z,4.40
2023-04-01T07:35:51.199Z,3.70
2023-04-01T07:38:24.034Z,5.40
2023-04-01T07:40:57.126Z,4.03
2023-04-01T07:43:44.904Z,4.37
2023-04-01T07:46:24.838Z,4.40
2023-04-01T07:49:09.575Z,3.30
2023-04-01T07:51:57.156Z,5.47
2023-04-01T07:54:25.693Z,3.77
2023-04-01T07:57:07.980Z,10.00
2023-04-01T07:59:57.429Z,4.33
2023-04-01T08:02:34.505Z,2.40
2023-04-01T08:05:06.336Z,2.70
2023-04-01T08:07:36.192Z,2.60
2023-04-01T08:13:40.924Z,2.53
2023-04-01T08:16:33.178Z,3.87
2023-04-01T08:19:07.475Z,7.63
2023-04-01T08:21:37.287Z,2.53
2023-04-01T08:24:11.734Z,2.10
2023-04-01T08:26:43.929Z,1.77
2023-04-01T08:29:12.667Z,7.70
2023-04-01T08:31:48.961Z,3.40
2023-04-01T08:34:25.782Z,2.60
2023-04-01T08:37:04.289Z,2.70
2023-04-01T08:39:32.536Z,8.47
2023-04-01T08:42:18.128Z,5.17
2023-04-01T08:45:29.469Z,3.07
2023-04-01T08:47:56.863Z,6.17
2023-04-01T08:50:34.030Z,4.63
2023-04-01T08:53:15.771Z,10.97
2023-04-01T08:55:53.705Z,6.77
2023-04-01T08:58:32.858Z,6.47
2023-04-01T09:01:33.624Z,3.13
2023-04-01T09:04:22.316Z,2.60
2023-04-01T09:06:49.072Z,3.03
2023-04-01T09:09:25.109Z,14.07
2023-04-01T09:11:59.955Z,8.63
2023-04-01T09:14:31.052Z,2.10
2023-04-01T09:17:20.305Z,3.63
2023-04-01T09:19:53.309Z,1.73
2023-04-01T09:22:23.061Z,2.00
2023-04-01T09:24:56.133Z,2.17
2023-04-01T09:27:41.858Z,2.10
2023-04-01T09:30:18.869Z,1.37
2023-04-01T09:33:04.464Z,4.63
2023-04-01T09:35:34.646Z,3.07
2023-04-01T09:38:05.363Z,1.97
2023-04-01T09:40:38.925Z,0.97
2023-04-01T09:43:28.199Z,1.50
2023-04-01T09:46:08.663Z,0.90
2023-04-01T09:48:35.518Z,1.17
2023-04-01T09:51:06.306Z,0.80
2023-04-01T09:53:46.968Z,0.67
2023-04-01T09:56:35.837Z,0.90
2023-04-01T09:59:09.134Z,1.30
2023-04-01T10:01:57.213Z,1.77
2023-04-01T10:04:42.676Z,1.27
2023-04-01T10:07:23.426Z,1.30
2023-04-01T10:10:08.609Z,1.93
2023-04-01T10:12:35.297Z,1.70
2023-04-01T10:15:04.785Z,1.70
2023-04-01T10:17:47.162Z,1.30
2023-04-01T10:20:19.736Z,1.70
2023-04-01T10:23:01.600Z,1.80
2023-04-01T10:25:32.049Z,2.00
2023-04-01T10:28:09.358Z,1.30
2023-04-01T10:31:20.622Z,2.00
2023-04-01T10:33:57.264Z,1.60
2023-04-01T10:36:42.161Z,1.73
2023-04-01T10:39:22.722Z,1.70
2023-04-01T10:42:05.399Z,1.37
2023-04-01T10:44:44.022Z,1.40
2023-04-01T10:47:37.322Z,0.90
2023-04-01T10:50:22.890Z,1.17
2023-04-01T10:52:53.507Z,1.13
2023-04-01T10:55:42.058Z,1.20
2023-04-01T10:58:40.250Z,1.43
2023-04-01T11:01:28.775Z,1.57
2023-04-01T11:04:20.541Z,1.90
2023-04-01T11:07:17.917Z,1.30
2023-04-01T11:10:00.931Z,1.43
2023-04-01T11:12:48.465Z,0.90
2023-04-01T11:15:34.607Z,1.47
2023-04-01T11:18:43.515Z,1.03
2023-04-01T11:21:14.412Z,1.93
2023-04-01T11:24:02.268Z,1.97
2023-04-01T11:26:42.205Z,1.63
2023-04-01T11:29:32.992Z,2.87
2023-04-01T11:32:15.685Z,8.27
2023-04-01T11:34:56.831Z,6.93
2023-04-01T11:37:29.571Z,5.57
2023-04-01T11:40:33.470Z,8.30
2023-04-01T11:43:34.139Z,1.80
2023-04-01T11:46:32.451Z,2.87
2023-04-01T11:49:01.958Z,2.80
2023-04-01T11:51:49.144Z,2.23
2023-04-01T11:54:16.324Z,1.33
2023-04-01T11:56:48.148Z,4.13
2023-04-01T11:59:33.980Z,2.07
2023-04-01T12:02:07.402Z,2.23
2023-04-01T12:04:37.930Z,1.40
2023-04-01T12:07:12.415Z,2.07
2023-04-01T12:10:13.127Z,2.20
2023-04-01T12:12:47.772Z,3.50
2023-04-01T12:15:30.294Z,1.27
2023-04-01T12:17:57.006Z,0.97
2023-04-01T12:20:29.692Z,3.20
2023-04-01T12:22:59.643Z,1.70
2023-04-01T12:25:29.688Z,1.47
2023-04-01T12:28:05.457Z,1.00
2023-04-01T12:30:36.587Z,1.00
2023-04-01T12:33:21.963Z,1.00
2023-04-01T12:35:56.995Z,1.30
2023-04-01T12:38:43.447Z,1.40
2023-04-01T12:41:23.036Z,1.07
2023-04-01T12:44:07.576Z,1.00
2023-04-01T12:46:37.535Z,1.40
2023-04-01T12:49:11.142Z,0.70
2023-04-01T12:51:58.184Z,1.10
2023-04-01T12:54:25.526Z,0.70
2023-04-01T12:57:01.606Z,1.40
2023-04-01T12:59:48.216Z,1.30
2023-04-01T13:02:33.963Z,1.30
2023-04-01T13:05:16.067Z,1.10
2023-04-01T13:08:04.095Z,1.20
2023-04-01T13:10:35.927Z,3.00
2023-04-01T13:13:21.879Z,1.70
2023-04-01T13:15:51.475Z,3.90
2023-04-01T13:18:33.485Z,2.20
2023-04-01T13:21:24.755Z,1.73
2023-04-01T13:23:57.541Z,2.70
2023-04-01T13:26:30.833Z,2.40
2023-04-01T13:29:04.111Z,1.57
2023-04-01T13:31:31.012Z,1.70
2023-04-01T13:34:16.475Z,4.33
2023-04-01T13:36:43.408Z,4.03
2023-04-01T13:39:10.275Z,4.47
2023-04-01T13:41:56.535Z,1.50
2023-04-01T13:44:55.942Z,1.43
2023-04-01T13:47:43.342Z,6.30
2023-04-01T13:50:29.449Z,1.53
2023-04-01T13:53:03.523Z,1.73
2023-04-01T13:55:46.858Z,8.07
2023-04-01T13:58:36.953Z,2.80
2023-04-01T14:01:13.047Z,3.17
2023-04-01T14:03:56.203Z,3.57
2023-04-01T14:06:32.885Z,2.63
2023-04-01T14:09:18.216Z,2.07
2023-04-01T14:12:03.281Z,1.30
2023-04-01T14:14:33.042Z,2.53
2023-04-01T14:17:15.419Z,2.20
2023-04-01T14:20:03.696Z,2.40
2023-04-01T14:22:43.925Z,2.50
2023-04-01T14:25:23.959Z,2.70
2023-04-01T14:27:51.068Z,10.70
2023-04-01T14:30:20.523Z,13.80
2023-04-01T14:33:07.026Z,5.17
2023-04-01T14:35:42.911Z,3.73
2023-04-01T14:38:23.746Z,3.17
2023-04-01T14:41:02.957Z,3.10
2023-04-01T14:43:48.770Z,4.60
2023-04-01T14:46:18.503Z,4.57
2023-04-01T14:48:58.594Z,5.77
2023-04-01T14:51:25.325Z,6.37
2023-04-01T14:54:07.495Z,7.60
2023-04-01T14:56:37.847Z,7.60
2023-04-01T14:59:11.970Z,5.77
2023-04-01T15:01:43.654Z,7.07
2023-04-01T15:04:22.563Z,5.80
2023-04-01T15:06:56.152Z,6.10
2023-04-01T15:09:42.663Z,6.63
2023-04-01T15:12:09.651Z,6.47
2023-04-01T15:14:39.604Z,4.80
2023-04-01T15:17:16.398Z,4.90
2023-04-01T15:20:24.070Z,5.90
2023-04-01T15:22:54.600Z,6.10
2023-04-01T15:25:29.096Z,5.57
2023-04-01T15:28:08.209Z,7.80
2023-04-01T15:30:46.916Z,5.57
2023-04-01T15:33:26.200Z,5.00
2023-04-01T15:36:11.503Z,6.10
2023-04-01T15:39:01.812Z,6.63
2023-04-01T15:41:28.772Z,5.93
2023-04-01T15:43:55.597Z,5.40
2023-04-01T15:46:31.591Z,6.23
2023-04-01T15:49:17.672Z,5.43
2023-04-01T15:51:46.946Z,5.50
2023-04-01T15:54:14.122Z,5.40
2023-04-01T15:56:59.623Z,5.40
2023-04-01T15:59:38.448Z,5.10
2023-04-01T16:02:23.884Z,4.60
2023-04-01T16:04:55.237Z,5.60
2023-04-01T16:07:21.930Z,4.73
2023-04-01T16:10:00.718Z,7.30
2023-04-01T16:12:33.484Z,6.97
2023-04-01T16:15:12.681Z,10.00
2023-04-01T16:17:54.835Z,10.33
2023-04-01T16:20:21.530Z,7.17
2023-04-01T16:22:58.479Z,4.23
2023-04-01T16:25:41.570Z,6.73
2023-04-01T16:28:14.297Z,4.50
2023-04-01T16:30:42.171Z,5.30
2023-04-01T16:33:29.013Z,5.57
2023-04-01T16:35:57.237Z,4.50
2023-04-01T16:38:35.117Z,4.93
2023-04-01T16:41:02.126Z,4.77
2023-04-01T16:43:31.796Z,4.67
2023-04-01T16:46:07.682Z,4.30
2023-04-01T16:48:53.109Z,4.97
2023-04-01T16:51:20.373Z,5.00
2023-04-01T16:53:48.823Z,4.03
2023-04-01T16:56:17.168Z,4.63
2023-04-01T16:59:04.538Z,4.57
2023-04-01T17:01:50.004Z,5.33
2023-04-01T17:04:19.866Z,4.20
2023-04-01T17:06:46.788Z,4.50
2023-04-01T17:09:34.191Z,4.50
2023-04-01T17:12:23.517Z,4.33
2023-04-01T17:15:10.170Z,4.43
2023-04-01T17:17:41.004Z,5.47
2023-04-01T17:20:10.382Z,4.57
2023-04-01T17:22:51.259Z,4.27
2023-04-01T17:25:37.259Z,5.37
2023-04-01T17:28:16.958Z,5.40
2023-04-01T17:30:47.316Z,5.80
2023-04-01T17:33:20.090Z,5.30
2023-04-01T17:35:52.268Z,7.70
2023-04-01T17:38:19.243Z,8.80
2023-04-01T17:40:46.593Z,7.27
2023-04-01T17:43:20.960Z,5.60
2023-04-01T17:45:51.773Z,5.37
2023-04-01T17:48:51.263Z,5.47
2023-04-01T17:51:21.707Z,5.50
2023-04-01T17:54:03.652Z,5.70
2023-04-01T17:56:45.741Z,5.57
2023-04-01T17:59:31.124Z,5.90
2023-04-01T18:02:03.848Z,4.73
2023-04-01T18:04:35.558Z,3.60
2023-04-01T18:07:02.337Z,3.63
2023-04-01T18:09:44.404Z,3.60
2023-04-01T18:12:42.115Z,3.80
2023-04-01T18:15:15.042Z,4.23
2023-04-01T18:17:48.688Z,4.67
2023-04-01T18:20:34.550Z,4.47
2023-04-01T18:23:03.907Z,4.27
2023-04-01T18:25:35.019Z,8.23
2023-04-01T18:28:15.508Z,8.10
2023-04-01T18:30:42.247Z,5.07
2023-04-01T18:33:26.785Z,4.60
2023-04-01T18:35:59.712Z,4.27
2023-04-01T18:38:36.959Z,4.97
2023-04-01T18:41:22.712Z,4.33
2023-04-01T18:43:57.302Z,3.63
2023-04-01T18:46:44.372Z,4.70
2023-04-01T18:49:27.263Z,5.00
2023-04-01T18:52:00.475Z,5.00
2023-04-01T18:54:44.820Z,4.93
2023-04-01T18:57:15.339Z,4.80
2023-04-01T18:59:45.774Z,4.10
2023-04-01T19:02:17.194Z,4.33
2023-04-01T19:04:54.885Z,4.00
2023-04-01T19:07:41.372Z,4.30
2023-04-01T19:10:22.093Z,3.97
2023-04-01T19:13:00.915Z,4.00
2023-04-01T19:15:32.117Z,4.23
2023-04-01T19:18:05.354Z,3.10
2023-04-01T19:20:34.351Z,3.27
2023-04-01T19:23:21.333Z,3.83
2023-04-01T19:25:53.255Z,3.33
2023-04-01T19:28:41.606Z,4.30
2023-04-01T19:31:21.126Z,4.63
2023-04-01T19:34:06.582Z,4.57
2023-04-01T19:36:38.139Z,4.50
2023-04-01T19:39:05.108Z,3.60
2023-04-01T19:41:40.692Z,5.00
2023-04-01T19:44:13.754Z,3.70
2023-04-01T19:46:42.906Z,4.10
2023-04-01T19:49:09.951Z,3.97
2023-04-01T19:51:40.646Z,3.90
2023-04-01T19:54:26.189Z,4.07
2023-04-01T19:57:12.571Z,4.37
2023-04-01T19:59:52.088Z,4.53
2023-04-01T20:02:26.363Z,3.57
2023-04-01T20:04:57.066Z,3.50
2023-04-01T20:07:34.414Z,3.70
2023-04-01T20:10:07.423Z,4.63
2023-04-01T20:12:53.507Z,5.90
2023-04-01T20:15:34.084Z,4.00
2023-04-01T20:18:05.010Z,3.60
2023-04-01T20:20:32.173Z,3.20
2023-04-01T20:23:01.537Z,3.17
2023-04-01T20:25:32.152Z,3.10
2023-04-01T20:28:03.884Z,2.93
2023-04-01T20:31:00.002Z,2.70
2023-04-01T20:33:42.230Z,2.03
2023-04-01T20:36:11.869Z,2.50
2023-04-01T20:38:54.268Z,1.83
2023-04-01T20:41:24.206Z,2.37
2023-04-01T20:43:58.774Z,2.07
2023-04-01T20:46:31.919Z,2.37
2023-04-01T20:49:07.871Z,2.10
2023-04-01T20:51:37.186Z,2.23
2023-04-01T20:54:22.705Z,2.07
2023-04-01T20:56:55.840Z,2.83
2023-04-01T20:59:26.717Z,2.37
2023-04-01T21:02:06.819Z,3.00
2023-04-01T21:04:34.920Z,2.73
2023-04-01T21:07:06.486Z,3.30
2023-04-01T21:09:38.930Z,3.00
2023-04-01T21:12:05.811Z,2.80
2023-04-01T21:14:38.567Z,3.30
2023-04-01T21:17:08.974Z,2.80
2023-04-01T21:19:43.510Z,2.90
2023-04-01T21:22:22.724Z,3.20
2023-04-01T21:24:52.764Z,2.97
2023-04-01T21:27:23.350Z,2.50
2023-04-01T21:29:54.791Z,2.80
2023-04-01T21:32:25.780Z,2.70
2023-04-01T21:34:58.641Z,2.80
2023-04-01T21:37:28.350Z,2.73
2023-04-01T21:40:15.943Z,2.53
2023-04-01T21:42:48.792Z,2.87
2023-04-01T21:45:24.906Z,2.43
2023-04-01T21:47:58.470Z,3.00
2023-04-01T21:50:25.616Z,2.93
2023-04-01T21:53:02.972Z,2.77
2023-04-01T21:55:32.931Z,2.93
2023-04-01T21:58:09.320Z,2.60
2023-04-01T22:00:50.773Z,2.70
2023-04-01T22:03:27.466Z,2.53
2023-04-01T22:06:02.196Z,2.93
2023-04-01T22:08:49.626Z,2.80
2023-04-01T22:11:18.098Z,2.87
2023-04-01T22:13:50.487Z,3.33
2023-04-01T22:16:36.378Z,3.40
2023-04-01T22:19:07.700Z,3.50
2023-04-01T22:21:37.690Z,3.53
2023-04-01T22:24:11.203Z,3.57
2023-04-01T22:26:41.603Z,3.67
2023-04-01T22:29:08.994Z,3.60
2023-04-01T22:32:01.922Z,3.53
2023-04-01T22:34:46.429Z,3.43
2023-04-01T22:37:32.269Z,3.27
2023-04-01T22:39:58.890Z,3.30
2023-04-01T22:42:42.768Z,3.27
2023-04-01T22:45:23.864Z,3.30
2023-04-01T22:47:54.388Z,3.33
2023-04-01T22:50:23.129Z,3.70
2023-04-01T22:52:51.643Z,3.10
2023-04-01T22:55:22.874Z,3.33
2023-04-01T22:57:53.317Z,2.90
2023-04-01T23:00:30.552Z,3.00
2023-04-01T23:03:03.201Z,3.23
2023-04-01T23:05:29.927Z,3.30
2023-04-01T23:08:08.956Z,2.77
2023-04-01T23:10:39.469Z,2.77
2023-04-01T23:13:06.152Z,2.77
2023-04-01T23:15:32.980Z,2.60
2023-04-01T23:18:29.247Z,2.60
2023-04-01T23:32:29.978Z,1.60
2023-04-01T23:34:57.734Z,2.10
2023-04-01T23:37:24.747Z,1.93
2023-04-01T23:39:58.599Z,2.00
2023-04-01T23:42:26.372Z,1.70
2023-04-01T23:44:54.732Z,1.87
2023-04-01T23:47:25.428Z,2.10
2023-04-01T23:49:54.418Z,1.90
2023-04-01T23:52:22.568Z,1.93
2023-04-01T23:54:49.275Z,1.93
2023-04-01T23:57:17.014Z,1.77
2023-04-01T23:59:43.725Z,1.87
